createdAt,value
2023-01-10T00:00:00.986Z,100505.53
2023-01-10T00:02:32.411Z,100509.81
2023-01-10T00:05:11.692Z,100516.47
2023-01-10T00:07:56.541Z,100518.28
2023-01-10T00:10:23.473Z,100521.91
2023-01-10T00:13:09.748Z,100522.72
2023-01-10T00:15:41.598Z,100518.44
2023-01-10T00:18:12.144Z,100520.16
2023-01-10T00:20:47.579Z,100523.81
2023-01-10T00:23:14.699Z,100525.47
2023-01-10T00:25:46.618Z,100521.69
2023-01-10T00:28:17.687Z,100526.41
2023-01-10T00:31:10.849Z,100519.75
2023-01-10T00:33:37.976Z,100518.31
2023-01-10T00:36:12.945Z,100522.88
2023-01-10T00:38:42.720Z,100528.06
2023-01-10T00:41:31.445Z,100529.88
2023-01-10T00:44:03.747Z,100533.28
2023-01-10T00:46:33.540Z,100528.78
2023-01-10T00:49:02.801Z,100533.34
2023-01-10T00:51:29.552Z,100537.78
2023-01-10T00:53:56.489Z,100538.53
2023-01-10T00:56:23.351Z,100549.66
2023-01-10T00:58:53.253Z,100543.50
2023-01-10T01:01:20.260Z,100550.59
2023-01-10T01:03:52.352Z,100544.50
2023-01-10T01:06:22.334Z,100536.72
2023-01-10T01:08:51.023Z,100542.66
2023-01-10T01:11:26.872Z,100547.53
2023-01-10T01:13:56.353Z,100554.69
2023-01-10T01:16:23.234Z,100553.69
2023-01-10T01:18:55.851Z,100561.75
2023-01-10T01:21:22.626Z,100553.97
2023-01-10T01:23:53.422Z,100571.38
2023-01-10T01:26:20.195Z,100567.78
2023-01-10T01:28:50.526Z,100568.28
2023-01-10T01:31:17.410Z,100581.88
2023-01-10T01:33:44.311Z,100575.09
2023-01-10T01:36:17.611Z,100577.03
2023-01-10T01:38:49.289Z,100575.88
2023-01-10T01:41:36.463Z,100583.53
2023-01-10T01:44:10.434Z,100579.13
2023-01-10T01:46:48.867Z,100582.19
2023-01-10T01:49:21.969Z,100586.44
2023-01-10T01:52:01.632Z,100586.31
2023-01-10T01:54:41.147Z,100597.44
2023-01-10T01:57:19.482Z,100591.31
2023-01-10T01:59:50.091Z,100608.69
2023-01-10T02:02:32.716Z,100605.22
2023-01-10T02:05:02.533Z,100607.28
2023-01-10T02:07:38.671Z,100605.47
2023-01-10T02:10:18.884Z,100601.41
2023-01-10T02:12:47.896Z,100598.16
2023-01-10T02:15:18.818Z,100605.16
2023-01-10T02:17:51.891Z,100607.28
2023-01-10T02:20:23.473Z,100609.19
2023-01-10T02:23:18.480Z,100602.41
2023-01-10T02:26:14.684Z,100626.94
2023-01-10T02:29:10.664Z,100614.63
2023-01-10T02:32:17.158Z,100620.94
2023-01-10T02:35:03.315Z,100622.84
2023-01-10T02:37:48.371Z,100622.00
2023-01-10T02:40:39.231Z,100622.16
2023-01-10T02:43:13.749Z,100626.47
2023-01-10T02:45:48.067Z,100622.13
2023-01-10T02:48:18.812Z,100633.34
2023-01-10T02:51:21.994Z,100636.41
2023-01-10T02:54:04.097Z,100630.06
2023-01-10T02:56:44.200Z,100637.56
2023-01-10T02:59:38.715Z,100642.59
2023-01-10T03:02:31.278Z,100654.16
2023-01-10T03:05:05.581Z,100653.34
2023-01-10T03:08:11.019Z,100650.91
2023-01-10T03:10:45.587Z,100658.94
2023-01-10T03:13:23.097Z,100665.81
2023-01-10T03:15:51.529Z,100667.59
2023-01-10T03:18:30.681Z,100668.47
2023-01-10T03:20:59.632Z,100665.78
2023-01-10T03:23:32.766Z,100669.31
2023-01-10T03:26:06.666Z,100669.44
2023-01-10T03:28:45.170Z,100670.56
2023-01-10T03:31:18.900Z,100678.50
2023-01-10T03:33:45.867Z,100680.97
2023-01-10T03:36:33.503Z,100687.03
2023-01-10T03:39:36.142Z,100687.00
2023-01-10T03:42:16.350Z,100684.63
2023-01-10T03:44:58.531Z,100688.97
2023-01-10T03:47:41.480Z,100694.84
2023-01-10T03:50:23.935Z,100696.69
2023-01-10T03:52:53.314Z,100693.19
2023-01-10T03:55:29.128Z,100691.81
2023-01-10T03:57:58.327Z,100701.38
2023-01-10T04:00:31.072Z,100708.34
2023-01-10T04:03:03.396Z,100715.19
2023-01-10T04:05:32.894Z,100723.66
2023-01-10T04:07:59.737Z,100724.63
2023-01-10T04:10:30.022Z,100729.84
2023-01-10T04:13:05.059Z,100734.38
2023-01-10T04:15:37.880Z,100728.91
2023-01-10T04:18:04.755Z,100735.81
2023-01-10T04:20:34.084Z,100741.09
2023-01-10T04:23:03.791Z,100745.50
2023-01-10T04:25:30.561Z,100745.03
2023-01-10T04:28:02.771Z,100739.22
2023-01-10T04:30:29.620Z,100747.94
2023-01-10T04:32:59.465Z,100751.22
2023-01-10T04:35:31.942Z,100755.75
2023-01-10T04:38:05.001Z,100759.38
2023-01-10T04:40:32.065Z,100753.38
2023-01-10T04:42:58.928Z,100757.66
2023-01-10T04:45:26.402Z,100761.78
2023-01-10T04:47:56.328Z,100767.91
2023-01-10T04:50:24.149Z,100767.03
2023-01-10T04:52:51.112Z,100780.13
2023-01-10T04:55:20.135Z,100781.75
2023-01-10T04:57:51.898Z,100791.16
2023-01-10T05:00:22.195Z,100796.28
2023-01-10T05:02:49.185Z,100799.97
2023-01-10T05:05:21.220Z,100802.56
2023-01-10T05:07:48.030Z,100808.69
2023-01-10T05:10:22.266Z,100813.00
2023-01-10T05:12:52.131Z,100816.59
2023-01-10T05:15:25.928Z,100816.66
2023-01-10T05:18:03.566Z,100813.25
2023-01-10T05:20:34.980Z,100835.03
2023-01-10T05:23:04.884Z,100838.44
2023-01-10T05:25:34.486Z,100848.03
2023-01-10T05:28:01.259Z,100849.56
2023-01-10T05:30:28.015Z,100849.66
2023-01-10T05:32:57.275Z,100860.31
2023-01-10T05:35:25.784Z,100857.59
2023-01-10T05:37:52.950Z,100864.63
2023-01-10T05:40:19.820Z,100854.13
2023-01-10T05:42:51.615Z,100869.88
2023-01-10T05:45:21.008Z,100881.13
2023-01-10T05:47:47.863Z,100892.69
2023-01-10T05:50:14.827Z,100895.47
2023-01-10T05:52:41.967Z,100898.75
2023-01-10T05:55:08.869Z,100910.00
2023-01-10T05:57:35.695Z,100904.91
2023-01-10T06:00:05.019Z,100914.53
2023-01-10T06:02:39.305Z,100925.84
2023-01-10T06:05:07.973Z,100930.06
2023-01-10T06:07:40.808Z,100936.34
2023-01-10T06:10:11.608Z,100936.34
2023-01-10T06:12:50.430Z,100938.16
2023-01-10T06:15:20.017Z,100942.47
2023-01-10T06:17:48.075Z,100943.22
2023-01-10T06:20:15.522Z,100949.13
2023-01-10T06:22:46.644Z,100953.66
2023-01-10T06:25:16.948Z,100965.16
2023-01-10T06:27:49.955Z,100969.41
2023-01-10T06:30:25.519Z,100972.13
2023-01-10T06:32:52.431Z,100980.91
2023-01-10T06:35:19.130Z,100986.22
2023-01-10T06:37:46.086Z,100988.94
2023-01-10T06:40:15.618Z,101001.03
2023-01-10T06:42:42.458Z,101009.91
2023-01-10T06:45:10.133Z,101003.75
2023-01-10T06:47:39.422Z,101019.66
2023-01-10T06:50:09.646Z,101024.88
2023-01-10T06:52:42.442Z,101023.09
2023-01-10T06:55:11.739Z,101032.78
2023-01-10T06:57:38.749Z,101042.41
2023-01-10T07:00:13.644Z,101039.81
2023-01-10T07:02:42.920Z,101042.38
2023-01-10T07:05:11.486Z,101056.34
2023-01-10T07:15:49.627Z,101064.34
2023-01-10T07:18:21.061Z,101066.94
2023-01-10T07:20:47.786Z,101081.78
2023-01-10T07:23:14.589Z,101094.81
2023-01-10T07:25:49.651Z,101097.47
2023-01-10T07:28:22.101Z,101088.78
2023-01-10T07:30:53.289Z,101107.06
2023-01-10T07:33:23.005Z,101109.72
2023-01-10T07:35:49.831Z,101108.91
2023-01-10T07:38:23.116Z,101109.72
2023-01-10T07:40:51.253Z,101117.47
2023-01-10T07:43:23.891Z,101107.91
2023-01-10T07:45:54.790Z,101128.00
2023-01-10T07:48:24.145Z,101124.44
2023-01-10T07:50:55.467Z,101130.47
2023-01-10T07:53:26.877Z,101136.63
2023-01-10T07:55:53.662Z,101139.25
2023-01-10T07:58:23.004Z,101135.53
2023-01-10T08:00:53.049Z,101135.56
2023-01-10T08:03:23.301Z,101140.81
2023-01-10T08:05:53.029Z,101138.19
2023-01-10T08:08:26.339Z,101152.25
2023-01-10T08:10:55.871Z,101152.09
2023-01-10T08:13:24.818Z,101154.66
2023-01-10T08:15:52.601Z,101162.50
2023-01-10T08:18:21.378Z,101165.91
2023-01-10T08:20:53.045Z,101162.28
2023-01-10T08:23:22.876Z,101164.09
2023-01-10T08:25:59.431Z,101183.28
2023-01-10T08:28:26.442Z,101185.75
2023-01-10T08:31:01.147Z,101189.19
2023-01-10T08:33:30.941Z,101192.56
2023-01-10T08:35:57.873Z,101202.22
2023-01-10T08:38:25.809Z,101213.56
2023-01-10T08:40:56.995Z,101208.19
2023-01-10T08:43:24.635Z,101224.78
2023-01-10T08:45:56.460Z,101221.28
2023-01-10T08:48:26.542Z,101215.16
2023-01-10T08:50:53.561Z,101215.88
2023-01-10T08:53:23.115Z,101215.84
2023-01-10T08:55:52.771Z,101213.19
2023-01-10T08:58:19.673Z,101232.44
2023-01-10T09:00:49.607Z,101229.94
2023-01-10T09:03:20.642Z,101235.13
2023-01-10T09:05:51.360Z,101243.88
2023-01-10T09:08:18.125Z,101242.22
2023-01-10T09:10:45.050Z,101238.59
2023-01-10T09:13:14.478Z,101256.84
2023-01-10T09:15:45.903Z,101262.91
2023-01-10T09:18:22.283Z,101259.34
2023-01-10T09:20:51.064Z,101280.38
2023-01-10T09:23:30.692Z,101268.91
2023-01-10T09:26:01.542Z,101281.22
2023-01-10T09:28:28.347Z,101301.28
2023-01-10T09:31:01.600Z,101294.97
2023-01-10T09:33:35.157Z,101296.72
2023-01-10T09:36:27.607Z,101299.09
2023-01-10T09:38:59.524Z,101300.00
2023-01-10T09:41:55.848Z,101320.09
2023-01-10T09:44:43.111Z,101317.41
2023-01-10T09:53:39.412Z,101333.84
2023-01-10T09:56:10.554Z,101331.09
2023-01-10T09:58:51.090Z,101335.38
2023-01-10T10:01:29.843Z,101330.16
2023-01-10T10:04:02.889Z,101338.78
2023-01-10T10:06:34.824Z,101365.03
2023-01-10T10:09:04.193Z,101364.03
2023-01-10T10:11:46.757Z,101348.16
2023-01-10T10:14:32.998Z,101357.78
2023-01-10T10:17:17.848Z,101368.97
2023-01-10T10:20:09.060Z,101342.53
2023-01-10T10:23:00.641Z,101352.81
2023-01-10T10:25:45.903Z,101366.75
2023-01-10T10:28:53.685Z,101360.50
2023-01-10T10:31:47.771Z,101363.84
2023-01-10T10:34:23.226Z,101363.63
2023-01-10T10:37:06.365Z,101367.97
2023-01-10T10:39:45.828Z,101355.59
2023-01-10T10:42:16.870Z,101360.91
2023-01-10T10:45:14.865Z,101373.63
2023-01-10T10:47:52.806Z,101376.41
2023-01-10T10:50:35.937Z,101379.16
2023-01-10T10:53:11.363Z,101376.38
2023-01-10T10:55:43.902Z,101386.84
2023-01-10T10:58:12.437Z,101377.16
2023-01-10T11:00:41.148Z,101392.91
2023-01-10T11:03:42.196Z,101384.97
2023-01-10T11:06:13.688Z,101375.34
2023-01-10T11:08:45.851Z,101382.28
2023-01-10T11:11:27.484Z,101375.13
2023-01-10T11:14:00.010Z,101369.63
2023-01-10T11:16:35.181Z,101384.72
2023-01-10T11:19:20.612Z,101381.09
2023-01-10T11:21:57.311Z,101386.34
2023-01-10T11:24:28.828Z,101388.13
2023-01-10T11:26:58.073Z,101388.91
2023-01-10T11:29:53.505Z,101384.47
2023-01-10T11:32:33.333Z,101393.31
2023-01-10T11:35:07.501Z,101385.22
2023-01-10T11:37:39.021Z,101386.94
2023-01-10T11:40:28.377Z,101395.59
2023-01-10T11:42:59.657Z,101391.97
2023-01-10T11:45:36.418Z,101396.34
2023-01-10T11:48:19.397Z,101384.00
2023-01-10T11:50:56.579Z,101378.63
2023-01-10T11:53:50.182Z,101378.63
2023-01-10T11:56:26.203Z,101369.84
2023-01-10T11:58:54.246Z,101384.69
2023-01-10T12:01:43.599Z,101386.34
2023-01-10T12:04:21.220Z,101387.25
2023-01-10T12:06:55.942Z,101365.19
2023-01-10T12:09:33.342Z,101367.84
2023-01-10T12:12:08.089Z,101372.94
2023-01-10T12:14:36.227Z,101394.06
2023-01-10T12:17:06.711Z,101413.31
2023-01-10T12:19:33.527Z,101418.50
2023-01-10T12:22:06.338Z,101426.34
2023-01-10T12:24:44.373Z,101417.66
2023-01-10T12:27:17.516Z,101416.66
2023-01-10T12:30:15.003Z,101401.81
2023-01-10T12:32:46.880Z,101414.66
2023-01-10T12:35:43.552Z,101406.75
2023-01-10T12:42:12.553Z,101413.72
2023-01-10T12:44:49.042Z,101410.13
2023-01-10T12:47:49.871Z,101411.97
2023-01-10T12:50:21.531Z,101407.63
2023-01-10T12:53:05.620Z,101413.09
2023-01-10T12:55:47.565Z,101409.41
2023-01-10T12:58:22.095Z,101417.38
2023-01-10T13:00:58.225Z,101416.41
2023-01-10T13:03:33.306Z,101411.84
2023-01-10T13:06:01.567Z,101423.19
2023-01-10T13:08:34.741Z,101422.41
2023-01-10T13:11:03.151Z,101425.91
2023-01-10T13:13:40.854Z,101422.31
2023-01-10T13:16:51.853Z,101421.41
2023-01-10T13:19:28.937Z,101417.91
2023-01-10T13:22:20.572Z,101425.91
2023-01-10T13:24:59.943Z,101428.41
2023-01-10T13:27:31.654Z,101425.97
2023-01-10T13:29:58.542Z,101426.63
2023-01-10T13:32:35.418Z,101438.63
2023-01-10T13:35:19.124Z,101438.81
2023-01-10T13:37:57.128Z,101443.91
2023-01-10T13:40:34.389Z,101442.19
2023-01-10T13:43:35.237Z,101449.41
2023-01-10T13:46:21.704Z,101457.47
2023-01-10T13:49:16.201Z,101460.94
2023-01-10T13:52:32.947Z,101454.88
2023-01-10T13:55:28.861Z,101461.81
2023-01-10T13:57:56.853Z,101464.56
2023-01-10T14:01:05.217Z,101459.97
2023-01-10T14:04:01.485Z,101456.53
2023-01-10T14:06:33.301Z,101463.44
2023-01-10T14:09:24.742Z,101466.97
2023-01-10T14:12:13.142Z,101462.78
2023-01-10T14:14:41.796Z,101479.50
2023-01-10T14:17:26.806Z,101472.31
2023-01-10T14:20:12.119Z,101468.66
2023-01-10T14:23:17.410Z,101478.31
2023-01-10T14:25:53.739Z,101482.06
2023-01-10T14:28:30.334Z,101479.41
2023-01-10T14:31:06.394Z,101480.03
2023-01-10T14:33:34.496Z,101498.66
2023-01-10T14:36:09.974Z,101495.38
2023-01-10T14:38:41.142Z,101491.88
2023-01-10T14:41:13.275Z,101498.09
2023-01-10T14:44:27.783Z,101496.97
2023-01-10T14:46:57.120Z,101492.81
2023-01-10T14:49:27.822Z,101490.06
2023-01-10T14:52:15.481Z,101489.38
2023-01-10T14:54:42.466Z,101490.09
2023-01-10T14:57:21.501Z,101489.44
2023-01-10T14:59:55.716Z,101490.50
2023-01-10T15:02:27.471Z,101498.56
2023-01-10T15:05:21.542Z,101497.72
2023-01-10T15:07:51.467Z,101502.81
2023-01-10T15:10:25.995Z,101493.91
2023-01-10T15:12:56.942Z,101504.53
2023-01-10T15:15:36.866Z,101498.41
2023-01-10T15:18:13.011Z,101499.03
2023-01-10T15:20:40.179Z,101507.31
2023-01-10T15:23:15.834Z,101504.34
2023-01-10T15:25:45.353Z,101507.25
2023-01-10T15:28:17.266Z,101511.59
2023-01-10T15:30:47.542Z,101501.91
2023-01-10T15:33:19.851Z,101510.78
2023-01-10T15:35:48.602Z,101508.38
2023-01-10T15:38:18.378Z,101513.63
2023-01-10T15:40:50.127Z,101500.59
2023-01-10T15:43:25.007Z,101511.97
2023-01-10T15:46:00.680Z,101512.09
2023-01-10T15:48:43.973Z,101519.41
2023-01-10T15:51:42.802Z,101521.13
2023-01-10T15:54:24.521Z,101518.59
2023-01-10T15:57:40.227Z,101519.34
2023-01-10T16:00:18.174Z,101527.25
2023-01-10T16:02:48.050Z,101528.28
2023-01-10T16:05:22.512Z,101535.22
2023-01-10T16:07:49.468Z,101538.03
2023-01-10T16:10:26.937Z,101545.97
2023-01-10T16:13:19.732Z,101550.44
2023-01-10T16:15:46.595Z,101548.81
2023-01-10T16:18:13.326Z,101553.13
2023-01-10T16:20:46.119Z,101554.03
2023-01-10T16:23:16.777Z,101554.91
2023-01-10T16:26:06.137Z,101553.31
2023-01-10T16:28:36.437Z,101549.97
2023-01-10T16:31:12.456Z,101562.94
2023-01-10T16:33:39.240Z,101570.88
2023-01-10T16:36:14.907Z,101574.50
2023-01-10T16:38:48.087Z,101574.53
2023-01-10T16:41:36.181Z,101575.41
2023-01-10T16:44:03.223Z,101580.63
2023-01-10T16:46:30.479Z,101586.91
2023-01-10T16:48:57.436Z,101578.84
2023-01-10T16:51:30.482Z,101581.59
2023-01-10T16:53:57.313Z,101581.75
2023-01-10T16:56:26.919Z,101587.06
2023-01-10T16:58:58.170Z,101590.66
2023-01-10T17:01:43.668Z,101595.25
2023-01-10T17:04:21.217Z,101594.47
2023-01-10T17:07:05.174Z,101594.38
2023-01-10T17:09:35.959Z,101605.94
2023-01-10T17:12:15.175Z,101602.69
2023-01-10T17:14:45.587Z,101603.56
2023-01-10T17:17:15.416Z,101598.19
2023-01-10T17:19:43.054Z,101598.09
2023-01-10T17:22:17.233Z,101600.66
2023-01-10T17:24:47.385Z,101597.13
2023-01-10T17:27:14.339Z,101604.91
2023-01-10T17:29:41.282Z,101600.38
2023-01-10T17:32:15.197Z,101604.88
2023-01-10T17:34:45.340Z,101605.66
2023-01-10T17:37:14.664Z,101611.81
2023-01-10T17:39:41.731Z,101613.41
2023-01-10T17:42:14.876Z,101610.75
2023-01-10T17:44:41.745Z,101620.44
2023-01-10T17:47:14.609Z,101620.38
2023-01-10T17:49:44.328Z,101628.41
2023-01-10T17:52:11.268Z,101630.09
2023-01-10T17:54:45.539Z,101630.25
2023-01-10T17:57:36.281Z,101629.19
2023-01-10T18:00:12.394Z,101631.81
2023-01-10T18:02:39.545Z,101638.81
2023-01-10T18:05:12.070Z,101636.97
2023-01-10T18:07:38.791Z,101639.59
2023-01-10T18:10:09.084Z,101650.09
2023-01-10T18:12:36.719Z,101658.00
2023-01-10T18:15:08.633Z,101658.09
2023-01-10T18:17:35.796Z,101650.22
2023-01-10T18:20:06.326Z,101652.84
2023-01-10T18:22:58.927Z,101652.06
2023-01-10T18:25:31.924Z,101645.81
2023-01-10T18:28:04.124Z,101650.22
2023-01-10T18:30:39.999Z,101657.09
2023-01-10T18:33:13.768Z,101657.09
2023-01-10T18:35:44.965Z,101647.47
2023-01-10T18:38:15.145Z,101653.59
2023-01-10T18:40:45.387Z,101650.06
2023-01-10T18:43:18.214Z,101653.56
2023-01-10T18:45:51.106Z,101650.97
2023-01-10T18:48:26.623Z,101654.63
2023-01-10T18:50:57.718Z,101656.13
2023-01-10T18:53:28.293Z,101649.97
2023-01-10T18:56:01.034Z,101654.31
2023-01-10T18:58:31.579Z,101655.19
2023-01-10T19:01:06.007Z,101657.81
2023-01-10T19:03:38.085Z,101657.84
2023-01-10T19:06:16.997Z,101652.72
2023-01-10T19:08:44.999Z,101657.03
2023-01-10T19:11:20.931Z,101659.66
2023-01-10T19:13:55.434Z,101663.97
2023-01-10T19:16:25.229Z,101661.38
2023-01-10T19:19:09.534Z,101663.16
2023-01-10T19:21:40.544Z,101664.13
2023-01-10T19:24:36.233Z,101671.19
2023-01-10T19:27:04.970Z,101667.81
2023-01-10T19:29:41.811Z,101667.88
2023-01-10T19:32:11.833Z,101672.31
2023-01-10T19:34:46.368Z,101674.94
2023-01-10T19:37:19.457Z,101676.00
2023-01-10T19:39:47.644Z,101681.94
2023-01-10T19:42:15.713Z,101679.34
2023-01-10T19:44:42.907Z,101682.03
2023-01-10T19:47:11.766Z,101688.13
2023-01-10T19:49:41.901Z,101687.97
2023-01-10T19:52:11.370Z,101701.38
2023-01-10T19:54:48.759Z,101692.53
2023-01-10T19:57:19.544Z,101697.00
2023-01-10T19:59:52.117Z,101700.66
2023-01-10T20:02:23.559Z,101710.41
2023-01-10T20:04:53.335Z,101706.91
2023-01-10T20:07:22.548Z,101705.22
2023-01-10T20:09:51.043Z,101709.63
2023-01-10T20:12:22.649Z,101713.97
2023-01-10T20:14:55.854Z,101719.22
2023-01-10T20:17:25.918Z,101720.94
2023-01-10T20:19:57.180Z,101718.09
2023-01-10T20:22:24.776Z,101715.44
2023-01-10T20:24:54.163Z,101724.28
2023-01-10T20:27:24.206Z,101728.69
2023-01-10T20:29:52.169Z,101726.94
2023-01-10T20:32:19.947Z,101729.47
2023-01-10T20:34:49.888Z,101731.28
2023-01-10T20:37:25.319Z,101728.56
2023-01-10T20:39:52.268Z,101729.47
2023-01-10T20:42:44.416Z,101733.81
2023-01-10T20:45:16.409Z,101737.47
2023-01-10T20:47:53.802Z,101732.09
2023-01-10T20:50:21.887Z,101729.50
2023-01-10T20:53:02.799Z,101731.34
2023-01-10T20:55:35.605Z,101735.00
2023-01-10T20:58:08.802Z,101739.44
2023-01-10T21:00:43.700Z,101745.66
2023-01-10T21:03:11.157Z,101738.56
2023-01-10T21:05:43.120Z,101744.91
2023-01-10T21:08:12.312Z,101743.25
2023-01-10T21:10:46.043Z,101734.53
2023-01-10T21:13:16.634Z,101730.94
2023-01-10T21:15:48.067Z,101730.13
2023-01-10T21:18:26.487Z,101730.16
2023-01-10T21:21:07.062Z,101736.44
2023-01-10T21:23:34.915Z,101726.91
2023-01-10T21:26:06.608Z,101726.00
2023-01-10T21:28:35.507Z,101732.88
2023-01-10T21:31:12.635Z,101724.84
2023-01-10T21:33:42.759Z,101730.22
2023-01-10T21:36:15.727Z,101731.13
2023-01-10T21:38:50.035Z,101729.31
2023-01-10T21:41:39.357Z,101734.56
2023-01-10T21:44:08.704Z,101738.81
2023-01-10T21:46:36.467Z,101729.00
2023-01-10T21:49:07.291Z,101732.63
2023-01-10T21:51:34.452Z,101737.13
2023-01-10T21:54:04.248Z,101743.25
2023-01-10T21:56:34.213Z,101741.59
2023-01-10T21:59:04.030Z,101735.66
2023-01-10T22:01:31.080Z,101741.72
2023-01-10T22:04:03.789Z,101744.41
2023-01-10T22:06:33.648Z,101743.66
2023-01-10T22:09:00.697Z,101742.75
2023-01-10T22:11:30.658Z,101742.81
2023-01-10T22:14:00.829Z,101744.50
2023-01-10T22:16:27.715Z,101741.00
2023-01-10T22:18:58.404Z,101740.91
2023-01-10T22:21:30.789Z,101746.19
2023-01-10T22:23:59.730Z,101747.97
2023-01-10T22:26:32.059Z,101744.38
2023-01-10T22:29:01.823Z,101749.69
2023-01-10T22:31:30.869Z,101755.78
2023-01-10T22:34:06.430Z,101755.91
2023-01-10T22:36:38.876Z,101754.22
2023-01-10T22:39:09.155Z,101762.16
2023-01-10T22:41:39.284Z,101769.16
2023-01-10T22:44:06.560Z,101762.16
2023-01-10T22:46:34.712Z,101763.00
2023-01-10T22:49:01.733Z,101754.25
2023-01-10T22:51:29.018Z,101758.63
2023-01-10T22:54:00.580Z,101753.38
2023-01-10T22:56:27.632Z,101749.84
2023-01-10T22:58:58.194Z,101756.88
2023-01-10T23:01:30.507Z,101751.56
2023-01-10T23:03:59.597Z,101745.47
2023-01-10T23:06:28.887Z,101746.31
2023-01-10T23:09:00.137Z,101745.47
2023-01-10T23:11:30.665Z,101758.66
2023-01-10T23:13:57.823Z,101756.88
2023-01-10T23:16:35.148Z,101754.28
2023-01-10T23:19:02.122Z,101760.41
2023-01-10T23:21:31.652Z,101764.75
2023-01-10T23:23:58.649Z,101760.41
2023-01-10T23:26:25.489Z,101764.78
2023-01-10T23:29:00.466Z,101757.72
2023-01-10T23:31:29.864Z,101764.75
2023-01-10T23:33:57.157Z,101755.16
2023-01-10T23:36:38.264Z,101758.53
2023-01-10T23:39:06.123Z,101755.03
2023-01-10T23:41:34.144Z,101761.13
2023-01-10T23:44:02.328Z,101762.84
2023-01-10T23:46:29.680Z,101756.75
2023-01-10T23:49:10.863Z,101753.25
2023-01-10T23:51:38.180Z,101756.78
2023-01-10T23:54:05.659Z,101759.34
2023-01-10T23:56:33.001Z,101759.41
2023-01-10T23:59:06.943Z,101751.53
